createdAt,value
2023-02-14T00:01:21.031Z,1.81
2023-02-14T00:03:49.628Z,1.80
2023-02-14T00:06:19.242Z,1.76
2023-02-14T00:08:48.259Z,1.72
2023-02-14T00:11:17.208Z,1.70
2023-02-14T00:14:04.501Z,1.66
2023-02-14T00:16:33.343Z,1.71
2023-02-14T00:19:03.936Z,1.59
2023-02-14T00:21:32.806Z,1.57
2023-02-14T00:24:01.092Z,1.58
2023-02-14T00:26:29.652Z,1.52
2023-02-14T00:28:58.200Z,1.59
2023-02-14T00:31:25.736Z,1.59
2023-02-14T00:33:54.246Z,1.54
2023-02-14T00:36:21.764Z,1.53
2023-02-14T00:38:51.322Z,1.34
2023-02-14T00:41:22.939Z,1.31
2023-02-14T00:43:53.285Z,1.38
2023-02-14T00:46:22.007Z,1.40
2023-02-14T00:48:49.806Z,1.37
2023-02-14T00:51:18.527Z,1.32
2023-02-14T00:53:47.333Z,1.29
2023-02-14T00:56:15.884Z,1.19
2023-02-14T00:58:44.013Z,1.22
2023-02-14T01:01:11.695Z,1.21
2023-02-14T01:03:39.867Z,1.32
2023-02-14T01:06:07.754Z,1.35
2023-02-14T01:08:35.596Z,1.42
2023-02-14T01:11:09.131Z,1.47
2023-02-14T01:13:36.813Z,1.48
2023-02-14T01:16:09.166Z,1.51
2023-02-14T01:18:36.799Z,1.65
2023-02-14T01:21:18.286Z,1.70
2023-02-14T01:23:46.549Z,1.80
2023-02-14T01:26:14.549Z,1.80
2023-02-14T01:28:42.842Z,1.72
2023-02-14T01:31:20.144Z,1.72
2023-02-14T01:33:48.936Z,1.66
2023-02-14T01:36:21.618Z,1.64
2023-02-14T01:38:51.716Z,1.63
2023-02-14T01:41:19.121Z,1.54
2023-02-14T01:43:58.752Z,1.49
2023-02-14T01:46:27.836Z,1.44
2023-02-14T01:48:57.737Z,1.41
2023-02-14T01:51:26.147Z,1.28
2023-02-14T01:53:54.672Z,1.28
2023-02-14T01:56:27.165Z,1.33
2023-02-14T01:58:58.299Z,1.63
2023-02-14T02:01:26.720Z,1.93
2023-02-14T02:03:55.886Z,2.04
2023-02-14T02:06:30.112Z,2.14
2023-02-14T02:09:07.326Z,2.04
2023-02-14T02:11:35.216Z,2.00
2023-02-14T02:14:04.326Z,1.83
2023-02-14T02:16:40.496Z,1.86
2023-02-14T02:19:26.288Z,1.88
2023-02-14T02:21:53.938Z,1.82
2023-02-14T02:24:30.858Z,1.75
2023-02-14T02:27:16.945Z,1.62
2023-02-14T02:29:44.607Z,1.50
2023-02-14T02:32:30.771Z,1.40
2023-02-14T02:35:10.570Z,1.38
2023-02-14T02:37:41.455Z,1.46
2023-02-14T02:40:28.573Z,1.21
2023-02-14T02:43:12.617Z,1.13
2023-02-14T02:46:18.146Z,1.01
2023-02-14T02:49:08.724Z,0.89
2023-02-14T02:52:10.234Z,0.84
2023-02-14T02:54:42.126Z,0.72
2023-02-14T02:57:18.956Z,0.68
2023-02-14T02:59:48.298Z,0.64
2023-02-14T03:02:19.616Z,0.60
2023-02-14T03:04:55.527Z,0.64
2023-02-14T03:07:35.674Z,0.62
2023-02-14T03:10:12.819Z,0.71
2023-02-14T03:12:41.340Z,0.62
2023-02-14T03:15:27.624Z,0.58
2023-02-14T03:18:29.458Z,0.52
2023-02-14T03:21:13.684Z,0.50
2023-02-14T03:24:08.230Z,0.47
2023-02-14T03:26:47.664Z,0.44
2023-02-14T03:29:34.039Z,0.38
2023-02-14T03:32:25.670Z,0.37
2023-02-14T03:34:57.601Z,0.35
2023-02-14T03:37:39.671Z,0.26
2023-02-14T03:40:10.540Z,0.25
2023-02-14T03:42:44.525Z,0.19
2023-02-14T03:45:16.367Z,0.15
2023-02-14T03:47:44.924Z,0.07
2023-02-14T03:50:17.792Z,0.06
2023-02-14T03:52:46.898Z,0.08
2023-02-14T03:55:16.862Z,0.12
2023-02-14T03:57:58.882Z,0.03
2023-02-14T04:00:27.634Z,0.05
2023-02-14T04:02:58.665Z,0.16
2023-02-14T04:05:27.831Z,0.02
2023-02-14T04:07:57.862Z,-0.08
2023-02-14T04:10:27.302Z,0.08
2023-02-14T04:12:55.120Z,-0.11
2023-02-14T04:15:22.876Z,-0.11
2023-02-14T04:18:09.050Z,-0.13
2023-02-14T04:20:38.082Z,-0.02
2023-02-14T04:23:06.038Z,-0.11
2023-02-14T04:25:35.388Z,-0.19
2023-02-14T04:28:03.074Z,-0.24
2023-02-14T04:30:30.461Z,-0.20
2023-02-14T04:32:59.520Z,-0.20
2023-02-14T04:35:26.865Z,-0.30
2023-02-14T04:37:54.251Z,-0.30
2023-02-14T04:40:21.904Z,-0.38
2023-02-14T04:42:49.333Z,-0.31
2023-02-14T04:45:16.862Z,-0.29
2023-02-14T04:47:44.237Z,-0.38
2023-02-14T04:50:12.202Z,-0.39
2023-02-14T04:52:39.654Z,-0.32
2023-02-14T04:55:07.808Z,-0.36
2023-02-14T04:57:35.598Z,-0.31
2023-02-14T05:00:05.798Z,-0.30
2023-02-14T05:02:34.561Z,-0.18
2023-02-14T05:05:02.172Z,-0.20
2023-02-14T05:07:30.131Z,-0.39
2023-02-14T05:09:58.930Z,-0.39
2023-02-14T05:12:26.691Z,-0.40
2023-02-14T05:14:56.348Z,-0.32
2023-02-14T05:17:24.620Z,-0.41
2023-02-14T05:19:52.242Z,-0.40
2023-02-14T05:22:19.650Z,-0.38
2023-02-14T05:24:47.088Z,-0.35
2023-02-14T05:27:14.969Z,-0.35
2023-02-14T05:29:44.921Z,-0.28
2023-02-14T05:32:12.640Z,-0.29
2023-02-14T05:34:41.775Z,-0.31
2023-02-14T05:37:10.401Z,-0.30
2023-02-14T05:39:37.736Z,-0.40
2023-02-14T05:42:05.014Z,-0.38
2023-02-14T05:44:32.603Z,-0.50
2023-02-14T05:47:00.643Z,-0.40
2023-02-14T05:49:29.860Z,-0.49
2023-02-14T05:51:57.501Z,-0.57
2023-02-14T05:54:24.772Z,-0.64
2023-02-14T05:56:53.032Z,-0.55
2023-02-14T05:59:29.343Z,-0.48
2023-02-14T06:01:58.837Z,-0.60
2023-02-14T06:04:26.961Z,-0.64
2023-02-14T06:06:55.381Z,-0.80
2023-02-14T06:09:22.762Z,-0.73
2023-02-14T06:11:50.194Z,-0.71
2023-02-14T06:14:18.097Z,-0.66
2023-02-14T06:16:45.880Z,-0.66
2023-02-14T06:19:14.778Z,-0.64
2023-02-14T06:21:43.224Z,-0.64
2023-02-14T06:24:10.651Z,-0.70
2023-02-14T06:26:38.004Z,-0.61
2023-02-14T06:29:05.435Z,-0.52
2023-02-14T06:31:32.903Z,-0.49
2023-02-14T06:34:00.296Z,-0.50
2023-02-14T06:36:27.824Z,-0.46
2023-02-14T06:38:56.486Z,-0.40
2023-02-14T06:41:23.805Z,-0.45
2023-02-14T06:43:51.098Z,-0.33
2023-02-14T06:46:19.039Z,-0.24
2023-02-14T06:48:46.473Z,-0.25
2023-02-14T06:51:14.123Z,-0.29
2023-02-14T06:53:41.643Z,-0.25
2023-02-14T06:56:09.058Z,-0.18
2023-02-14T06:58:37.286Z,-0.15
2023-02-14T07:01:06.052Z,-0.17
2023-02-14T07:03:34.923Z,-0.15
2023-02-14T07:06:04.839Z,-0.02
2023-02-14T07:08:33.765Z,-0.03
2023-02-14T07:11:01.817Z,0.02
2023-02-14T07:13:29.170Z,0.09
2023-02-14T07:15:56.879Z,0.07
2023-02-14T07:18:25.090Z,0.14
2023-02-14T07:20:53.704Z,0.27
2023-02-14T07:23:21.075Z,0.36
2023-02-14T07:25:48.717Z,0.54
2023-02-14T07:28:16.380Z,0.67
2023-02-14T07:30:44.601Z,0.97
2023-02-14T07:33:12.691Z,1.17
2023-02-14T07:35:40.111Z,1.33
2023-02-14T07:38:07.792Z,1.43
2023-02-14T07:40:36.370Z,1.57
2023-02-14T07:43:03.735Z,1.80
2023-02-14T07:45:31.814Z,1.99
2023-02-14T07:48:02.244Z,2.21
2023-02-14T07:50:30.143Z,2.35
2023-02-14T07:52:57.828Z,2.45
2023-02-14T07:55:25.241Z,2.53
2023-02-14T07:57:55.614Z,2.66
2023-02-14T08:00:24.341Z,2.76
2023-02-14T08:02:51.804Z,2.95
2023-02-14T08:05:19.317Z,3.09
2023-02-14T08:07:47.870Z,3.21
2023-02-14T08:10:15.242Z,3.30
2023-02-14T08:13:01.458Z,3.33
2023-02-14T08:15:48.853Z,3.40
2023-02-14T08:18:17.596Z,3.50
2023-02-14T08:20:46.132Z,3.64
2023-02-14T08:23:13.345Z,3.72
2023-02-14T08:25:41.520Z,3.80
2023-02-14T08:28:08.804Z,4.05
2023-02-14T08:30:38.127Z,4.32
2023-02-14T08:33:06.045Z,4.49
2023-02-14T08:35:33.609Z,4.81
2023-02-14T08:38:01.069Z,4.91
2023-02-14T08:40:28.719Z,4.99
2023-02-14T08:42:56.731Z,5.02
2023-02-14T08:45:24.020Z,5.15
2023-02-14T08:47:51.271Z,5.44
2023-02-14T08:50:19.274Z,5.89
2023-02-14T08:52:46.724Z,6.18
2023-02-14T08:55:14.508Z,6.62
2023-02-14T08:57:42.029Z,6.92
2023-02-14T09:00:10.034Z,7.32
2023-02-14T09:02:37.322Z,7.63
2023-02-14T09:05:06.219Z,7.79
2023-02-14T09:07:33.948Z,7.98
2023-02-14T09:10:01.584Z,8.17
2023-02-14T09:12:29.052Z,8.21
2023-02-14T09:14:56.520Z,8.41
2023-02-14T09:17:23.923Z,8.81
2023-02-14T09:19:51.217Z,9.12
2023-02-14T09:22:18.975Z,9.43
2023-02-14T09:24:46.416Z,9.57
2023-02-14T09:27:13.770Z,9.78
2023-02-14T09:29:41.088Z,9.87
2023-02-14T09:32:08.709Z,9.63
2023-02-14T09:34:54.954Z,9.62
2023-02-14T09:37:40.786Z,9.78
2023-02-14T09:40:08.454Z,9.59
2023-02-14T09:42:41.804Z,9.91
2023-02-14T09:45:09.704Z,9.96
2023-02-14T09:47:55.475Z,9.92
2023-02-14T09:50:30.556Z,10.16
2023-02-14T09:53:00.399Z,10.06
2023-02-14T09:55:33.628Z,10.11
2023-02-14T09:58:10.561Z,10.31
2023-02-14T10:00:41.892Z,10.69
2023-02-14T10:03:20.025Z,10.96
2023-02-14T10:05:47.400Z,11.17
2023-02-14T10:08:32.769Z,11.18
2023-02-14T10:11:04.184Z,10.79
2023-02-14T10:13:50.291Z,11.41
2023-02-14T10:16:46.689Z,11.21
2023-02-14T10:19:34.196Z,11.35
2023-02-14T10:22:02.814Z,11.50
2023-02-14T10:24:39.400Z,11.22
2023-02-14T10:27:14.432Z,11.83
2023-02-14T10:29:42.022Z,12.09
2023-02-14T10:32:18.769Z,12.23
2023-02-14T10:34:46.040Z,12.46
2023-02-14T10:37:31.763Z,12.44
2023-02-14T10:40:17.898Z,12.05
2023-02-14T10:42:50.934Z,12.55
2023-02-14T10:45:18.279Z,12.56
2023-02-14T10:48:03.875Z,12.62
2023-02-14T10:50:49.908Z,12.46
2023-02-14T10:53:32.925Z,12.82
2023-02-14T10:56:03.798Z,12.99
2023-02-14T10:58:32.708Z,12.85
2023-02-14T11:01:13.139Z,12.84
2023-02-14T11:03:43.859Z,13.00
2023-02-14T11:06:11.653Z,12.76
2023-02-14T11:08:40.417Z,12.81
2023-02-14T11:11:16.555Z,12.93
2023-02-14T11:13:44.564Z,12.69
2023-02-14T11:16:12.769Z,12.39
2023-02-14T11:18:41.046Z,12.63
2023-02-14T11:21:17.895Z,12.70
2023-02-14T11:23:47.067Z,12.85
2023-02-14T11:26:20.374Z,12.91
2023-02-14T11:28:55.189Z,13.08
2023-02-14T11:31:36.777Z,13.13
2023-02-14T11:34:20.912Z,13.00
2023-02-14T11:36:48.150Z,13.19
2023-02-14T11:39:28.936Z,13.16
2023-02-14T11:41:58.255Z,13.16
2023-02-14T11:44:27.711Z,13.26
2023-02-14T11:46:56.238Z,13.15
2023-02-14T11:49:34.022Z,13.33
2023-02-14T11:52:11.424Z,13.39
2023-02-14T11:54:40.286Z,13.57
2023-02-14T11:57:19.559Z,13.58
2023-02-14T11:59:50.792Z,13.55
2023-02-14T12:02:24.453Z,13.62
2023-02-14T12:04:54.953Z,13.64
2023-02-14T12:07:28.235Z,13.67
2023-02-14T12:10:15.752Z,13.51
2023-02-14T12:12:50.624Z,13.70
2023-02-14T12:15:23.459Z,13.71
2023-02-14T12:17:53.475Z,13.83
2023-02-14T12:20:26.669Z,13.73
2023-02-14T12:23:26.557Z,13.86
2023-02-14T12:26:00.244Z,13.89
2023-02-14T12:28:43.831Z,13.86
2023-02-14T12:31:11.816Z,13.95
2023-02-14T12:33:40.188Z,13.99
2023-02-14T12:36:16.368Z,14.27
2023-02-14T12:38:46.631Z,14.23
2023-02-14T12:41:32.323Z,14.13
2023-02-14T12:44:05.667Z,14.13
2023-02-14T12:46:42.171Z,14.16
2023-02-14T12:49:09.405Z,14.14
2023-02-14T12:52:03.104Z,14.14
2023-02-14T12:54:30.386Z,14.04
2023-02-14T12:57:08.969Z,14.07
2023-02-14T12:59:56.485Z,14.09
2023-02-14T13:02:43.961Z,14.03
2023-02-14T13:05:24.958Z,14.02
2023-02-14T13:07:55.377Z,14.03
2023-02-14T13:10:41.432Z,13.89
2023-02-14T13:13:17.938Z,14.04
2023-02-14T13:15:45.285Z,14.01
2023-02-14T13:18:19.142Z,14.02
2023-02-14T13:20:52.330Z,14.06
2023-02-14T13:23:37.777Z,14.13
2023-02-14T13:26:25.739Z,14.20
2023-02-14T13:28:58.523Z,14.36
2023-02-14T13:31:26.063Z,14.17
2023-02-14T13:33:57.391Z,14.17
2023-02-14T13:36:25.700Z,14.13
2023-02-14T13:41:23.458Z,14.24
2023-02-14T13:43:54.059Z,14.29
2023-02-14T13:46:41.329Z,14.27
2023-02-14T13:49:30.487Z,14.33
2023-02-14T13:51:59.194Z,14.28
2023-02-14T13:54:42.162Z,14.35
2023-02-14T13:57:28.272Z,14.26
2023-02-14T14:00:14.248Z,14.29
2023-02-14T14:02:48.407Z,14.30
2023-02-14T14:05:32.473Z,14.27
2023-02-14T14:08:18.786Z,14.22
2023-02-14T14:10:50.692Z,14.12
2023-02-14T14:13:36.500Z,14.24
2023-02-14T14:16:22.384Z,14.30
2023-02-14T14:18:50.658Z,14.49
2023-02-14T14:21:28.562Z,14.47
2023-02-14T14:24:14.403Z,14.27
2023-02-14T14:26:56.643Z,14.20
2023-02-14T14:29:27.380Z,14.21
2023-02-14T14:31:58.084Z,14.35
2023-02-14T14:34:28.832Z,14.26
2023-02-14T14:37:06.481Z,14.34
2023-02-14T14:39:35.358Z,14.26
2023-02-14T14:42:13.153Z,14.32
2023-02-14T14:44:54.400Z,14.19
2023-02-14T14:47:24.471Z,14.35
2023-02-14T14:49:54.638Z,14.17
2023-02-14T14:52:31.969Z,14.14
2023-02-14T14:54:59.844Z,14.12
2023-02-14T14:57:27.201Z,14.15
2023-02-14T15:00:17.546Z,14.18
2023-02-14T15:02:55.408Z,14.08
2023-02-14T15:05:27.653Z,13.88
2023-02-14T15:07:54.947Z,13.91
2023-02-14T15:10:27.334Z,13.81
2023-02-14T15:13:15.749Z,13.86
2023-02-14T15:15:47.675Z,13.84
2023-02-14T15:18:14.986Z,13.76
2023-02-14T15:20:42.849Z,13.71
2023-02-14T15:23:17.330Z,13.66
2023-02-14T15:25:45.929Z,13.60
2023-02-14T15:28:29.997Z,13.60
2023-02-14T15:30:59.200Z,13.56
2023-02-14T15:33:27.278Z,13.49
2023-02-14T15:35:55.106Z,13.40
2023-02-14T15:38:23.859Z,13.36
2023-02-14T15:40:51.933Z,13.33
2023-02-14T15:43:19.228Z,13.39
2023-02-14T15:45:49.363Z,13.09
2023-02-14T15:48:24.340Z,12.98
2023-02-14T15:50:52.922Z,12.94
2023-02-14T15:53:20.183Z,12.79
2023-02-14T15:55:51.537Z,12.86
2023-02-14T15:58:20.703Z,12.86
2023-02-14T16:00:48.669Z,12.84
2023-02-14T16:03:23.594Z,12.78
2023-02-14T16:05:50.880Z,12.68
2023-02-14T16:08:24.097Z,12.66
2023-02-14T16:11:08.977Z,12.72
2023-02-14T16:13:41.957Z,12.60
2023-02-14T16:16:13.301Z,12.48
2023-02-14T16:18:47.782Z,12.28
2023-02-14T16:21:15.150Z,12.15
2023-02-14T16:23:42.960Z,12.08
2023-02-14T16:26:11.383Z,11.93
2023-02-14T16:28:38.874Z,11.69
2023-02-14T16:31:10.441Z,11.32
2023-02-14T16:33:39.201Z,11.11
2023-02-14T16:36:07.852Z,10.92
2023-02-14T16:38:36.873Z,10.76
2023-02-14T16:41:04.096Z,10.47
2023-02-14T16:43:31.545Z,10.28
2023-02-14T16:45:58.710Z,10.12
2023-02-14T16:48:26.308Z,9.83
2023-02-14T16:50:53.639Z,9.64
2023-02-14T16:53:25.700Z,9.58
2023-02-14T16:55:54.176Z,9.48
2023-02-14T16:58:23.452Z,9.53
2023-02-14T17:00:50.764Z,9.39
2023-02-14T17:03:18.158Z,9.21
2023-02-14T17:05:45.848Z,9.16
2023-02-14T17:08:13.576Z,9.10
2023-02-14T17:10:42.029Z,9.12
2023-02-14T17:13:10.507Z,9.17
2023-02-14T17:15:39.137Z,9.21
2023-02-14T17:18:09.528Z,9.14
2023-02-14T17:20:37.369Z,9.08
2023-02-14T17:23:04.598Z,9.25
2023-02-14T17:25:31.970Z,9.24
2023-02-14T17:28:01.053Z,9.48
2023-02-14T17:30:28.486Z,9.70
2023-02-14T17:32:55.838Z,9.61
2023-02-14T17:35:23.214Z,9.44
2023-02-14T17:37:50.568Z,9.23
2023-02-14T17:40:17.833Z,9.19
2023-02-14T17:42:45.962Z,9.10
2023-02-14T17:45:13.288Z,8.89
2023-02-14T17:47:41.015Z,8.95
2023-02-14T17:50:10.542Z,8.62
2023-02-14T17:52:37.964Z,8.38
2023-02-14T17:55:06.802Z,8.20
2023-02-14T17:57:34.527Z,8.04
2023-02-14T18:00:02.890Z,7.92
2023-02-14T18:02:40.699Z,7.76
2023-02-14T18:05:08.283Z,7.51
2023-02-14T18:07:35.893Z,7.40
2023-02-14T18:10:04.486Z,7.40
2023-02-14T18:12:33.054Z,7.24
2023-02-14T18:15:00.625Z,7.14
2023-02-14T18:17:28.536Z,7.09
2023-02-14T18:19:55.991Z,6.95
2023-02-14T18:22:23.539Z,6.82
2023-02-14T18:24:51.058Z,6.75
2023-02-14T18:27:18.765Z,6.76
2023-02-14T18:29:46.348Z,6.65
2023-02-14T18:32:14.053Z,6.63
2023-02-14T18:34:41.678Z,6.51
2023-02-14T18:37:12.403Z,6.51
2023-02-14T18:39:40.232Z,6.45
2023-02-14T18:42:08.875Z,6.26
2023-02-14T18:44:36.568Z,6.25
2023-02-14T18:47:04.070Z,6.25
2023-02-14T18:49:31.577Z,6.25
2023-02-14T18:51:58.830Z,6.12
2023-02-14T18:54:26.197Z,6.11
2023-02-14T18:56:53.414Z,6.05
2023-02-14T18:59:20.851Z,6.03
2023-02-14T19:01:48.218Z,5.92
2023-02-14T19:04:17.097Z,5.84
2023-02-14T19:06:44.945Z,5.77
2023-02-14T19:09:14.503Z,5.72
2023-02-14T19:11:41.827Z,5.62
2023-02-14T19:14:10.482Z,5.49
2023-02-14T19:16:42.228Z,5.58
2023-02-14T19:19:10.173Z,5.52
2023-02-14T19:21:37.534Z,5.48
2023-02-14T19:24:08.157Z,5.49
2023-02-14T19:26:40.048Z,5.53
2023-02-14T19:29:09.783Z,5.56
2023-02-14T19:31:38.270Z,5.55
2023-02-14T19:34:06.600Z,5.43
2023-02-14T19:36:36.352Z,5.37
2023-02-14T19:39:03.731Z,5.32
2023-02-14T19:41:34.351Z,5.22
2023-02-14T19:44:04.810Z,5.35
2023-02-14T19:46:33.549Z,5.33
2023-02-14T19:49:01.700Z,5.35
2023-02-14T19:51:31.503Z,5.21
2023-02-14T19:54:01.484Z,5.27
2023-02-14T19:56:31.935Z,5.20
2023-02-14T19:58:59.865Z,5.13
2023-02-14T20:01:27.943Z,5.13
2023-02-14T20:03:55.756Z,5.12
2023-02-14T20:06:25.239Z,5.17
2023-02-14T20:08:53.986Z,5.17
2023-02-14T20:11:27.426Z,5.20
2023-02-14T20:13:55.575Z,5.10
2023-02-14T20:16:24.010Z,5.05
2023-02-14T20:18:52.702Z,5.10
2023-02-14T20:21:25.603Z,5.08
2023-02-14T20:23:54.763Z,5.01
2023-02-14T20:26:27.600Z,5.00
2023-02-14T20:28:56.013Z,4.95
2023-02-14T20:31:31.592Z,4.94
2023-02-14T20:34:00.549Z,4.93
2023-02-14T20:36:28.307Z,4.89
2023-02-14T20:38:56.741Z,4.82
2023-02-14T20:41:25.396Z,4.83
2023-02-14T20:43:54.221Z,4.77
2023-02-14T20:46:22.911Z,4.81
2023-02-14T20:48:51.199Z,4.83
2023-02-14T20:51:19.903Z,4.84
2023-02-14T20:53:48.024Z,4.79
2023-02-14T20:56:16.102Z,4.84
2023-02-14T20:58:44.052Z,4.90
2023-02-14T21:01:13.441Z,4.89
2023-02-14T21:03:42.178Z,4.84
2023-02-14T21:06:11.865Z,4.83
2023-02-14T21:08:39.708Z,4.84
2023-02-14T21:11:07.224Z,4.82
2023-02-14T21:13:35.008Z,4.72
2023-02-14T21:16:06.501Z,4.75
2023-02-14T21:18:34.598Z,4.69
2023-02-14T21:21:05.979Z,4.69
2023-02-14T21:23:33.734Z,4.65
2023-02-14T21:26:01.198Z,4.63
2023-02-14T21:28:29.075Z,4.67
2023-02-14T21:31:05.884Z,4.65
2023-02-14T21:33:33.535Z,4.61
2023-02-14T21:36:10.809Z,4.52
2023-02-14T21:38:38.391Z,4.43
2023-02-14T21:41:10.185Z,4.25
2023-02-14T21:43:42.280Z,4.04
2023-02-14T21:46:15.170Z,4.01
2023-02-14T21:49:01.124Z,3.87
2023-02-14T21:51:29.040Z,3.82
2023-02-14T21:53:57.271Z,3.78
2023-02-14T21:56:24.560Z,3.68
2023-02-14T21:58:53.141Z,3.62
2023-02-14T22:01:22.525Z,3.70
2023-02-14T22:03:50.265Z,3.69
2023-02-14T22:06:18.323Z,3.58
2023-02-14T22:08:45.770Z,3.60
2023-02-14T22:11:15.030Z,3.54
2023-02-14T22:13:42.879Z,3.56
2023-02-14T22:16:11.625Z,3.64
2023-02-14T22:18:39.329Z,3.63
2023-02-14T22:21:27.150Z,3.52
2023-02-14T22:23:55.313Z,3.56
2023-02-14T22:26:24.127Z,3.57
2023-02-14T22:28:53.904Z,3.53
2023-02-14T22:31:21.565Z,3.45
2023-02-14T22:33:49.121Z,3.34
2023-02-14T22:36:16.659Z,3.36
2023-02-14T22:38:43.911Z,3.38
2023-02-14T22:41:12.537Z,3.40
2023-02-14T22:43:39.909Z,3.37
2023-02-14T22:46:08.367Z,3.38
2023-02-14T22:48:36.266Z,3.30
2023-02-14T22:51:26.986Z,3.29
2023-02-14T22:53:58.550Z,3.36
2023-02-14T22:56:27.062Z,3.34
2023-02-14T22:58:55.455Z,3.33
2023-02-14T23:01:23.603Z,3.28
2023-02-14T23:03:55.021Z,3.32
2023-02-14T23:06:22.757Z,3.13
2023-02-14T23:08:50.034Z,3.19
2023-02-14T23:11:19.021Z,3.24
2023-02-14T23:14:04.768Z,3.17
2023-02-14T23:16:51.388Z,3.14
2023-02-14T23:19:39.406Z,3.07
2023-02-14T23:22:08.461Z,3.00
2023-02-14T23:24:35.761Z,3.00
2023-02-14T23:27:03.500Z,3.12
2023-02-14T23:29:30.733Z,2.99
2023-02-14T23:31:58.016Z,3.01
2023-02-14T23:34:26.261Z,3.12
2023-02-14T23:36:53.591Z,3.15
2023-02-14T23:39:20.841Z,3.11
2023-02-14T23:41:48.091Z,3.06
2023-02-14T23:44:21.321Z,3.08
2023-02-14T23:46:49.117Z,3.14
2023-02-14T23:49:16.924Z,3.09
2023-02-14T23:51:45.252Z,3.04
2023-02-14T23:54:12.798Z,3.02
2023-02-14T23:56:40.360Z,2.94
2023-02-14T23:59:08.129Z,2.94
